sensor_id;sensor_type;location;lat;lon;timestamp;temperature;humidity
6581;DHT22;3324;50.796;7.228;2023-05-07T00:02:02;14.40;99.90
6581;DHT22;3324;50.796;7.228;2023-05-07T00:04:29;14.40;99.90
6581;DHT22;3324;50.796;7.228;2023-05-07T00:07:01;14.40;99.90
6581;DHT22;3324;50.796;7.228;2023-05-07T00:09:27;14.50;99.90
6581;DHT22;3324;50.796;7.228;2023-05-07T00:11:52;14.50;99.90
6581;DHT22;3324;50.796;7.228;2023-05-07T00:14:18;14.50;99.90
6581;DHT22;3324;50.796;7.228;2023-05-07T00:16:44;14.50;99.90
6581;DHT22;3324;50.796;7.228;2023-05-07T00:19:09;14.40;99.90
6581;DHT22;3324;50.796;7.228;2023-05-07T00:21:35;14.40;99.90
6581;DHT22;3324;50.796;7.228;2023-05-07T00:24:01;14.30;99.90
6581;DHT22;3324;50.796;7.228;2023-05-07T00:26:26;14.20;99.90
6581;DHT22;3324;50.796;7.228;2023-05-07T00:28:52;14.20;99.90
6581;DHT22;3324;50.796;7.228;2023-05-07T00:31:17;14.30;99.90
6581;DHT22;3324;50.796;7.228;2023-05-07T00:33:43;14.30;99.90
6581;DHT22;3324;50.796;7.228;2023-05-07T00:36:09;14.30;99.90
6581;DHT22;3324;50.796;7.228;2023-05-07T00:38:34;14.30;99.90
6581;DHT22;3324;50.796;7.228;2023-05-07T00:41:00;14.30;99.90
6581;DHT22;3324;50.796;7.228;2023-05-07T00:43:27;14.30;99.90
6581;DHT22;3324;50.796;7.228;2023-05-07T00:45:53;14.40;99.90
6581;DHT22;3324;50.796;7.228;2023-05-07T00:48:19;14.30;99.90
6581;DHT22;3324;50.796;7.228;2023-05-07T00:50:45;14.30;99.90
6581;DHT22;3324;50.796;7.228;2023-05-07T00:53:11;14.30;99.90
6581;DHT22;3324;50.796;7.228;2023-05-07T00:55:37;14.30;99.90
6581;DHT22;3324;50.796;7.228;2023-05-07T00:58:03;14.30;99.90
6581;DHT22;3324;50.796;7.228;2023-05-07T01:00:28;14.30;99.90
6581;DHT22;3324;50.796;7.228;2023-05-07T01:02:54;14.30;99.90
6581;DHT22;3324;50.796;7.228;2023-05-07T01:05:20;14.20;99.90
6581;DHT22;3324;50.796;7.228;2023-05-07T01:07:48;14.20;99.90
6581;DHT22;3324;50.796;7.228;2023-05-07T01:10:15;14.20;99.90
6581;DHT22;3324;50.796;7.228;2023-05-07T01:12:42;14.20;99.90
6581;DHT22;3324;50.796;7.228;2023-05-07T01:15:09;14.20;99.90
6581;DHT22;3324;50.796;7.228;2023-05-07T01:17:36;14.20;99.90
6581;DHT22;3324;50.796;7.228;2023-05-07T01:20:02;14.20;99.90
6581;DHT22;3324;50.796;7.228;2023-05-07T01:22:37;14.20;99.90
6581;DHT22;3324;50.796;7.228;2023-05-07T01:25:07;14.20;99.90
6581;DHT22;3324;50.796;7.228;2023-05-07T01:27:33;14.20;99.90
6581;DHT22;3324;50.796;7.228;2023-05-07T01:30:00;14.20;99.90
6581;DHT22;3324;50.796;7.228;2023-05-07T01:32:37;14.20;99.90
6581;DHT22;3324;50.796;7.228;2023-05-07T01:35:07;14.20;99.90
6581;DHT22;3324;50.796;7.228;2023-05-07T01:37:35;14.20;99.90
6581;DHT22;3324;50.796;7.228;2023-05-07T01:40:01;14.20;99.90
6581;DHT22;3324;50.796;7.228;2023-05-07T01:42:29;14.20;99.90
6581;DHT22;3324;50.796;7.228;2023-05-07T01:44:54;14.20;99.90
6581;DHT22;3324;50.796;7.228;2023-05-07T01:47:21;14.30;99.90
6581;DHT22;3324;50.796;7.228;2023-05-07T01:49:46;14.30;99.90
6581;DHT22;3324;50.796;7.228;2023-05-07T01:52:12;14.20;99.90
6581;DHT22;3324;50.796;7.228;2023-05-07T01:54:38;14.20;99.90
6581;DHT22;3324;50.796;7.228;2023-05-07T01:57:04;14.20;99.90
6581;DHT22;3324;50.796;7.228;2023-05-07T01:59:29;14.10;99.90
6581;DHT22;3324;50.796;7.228;2023-05-07T02:01:55;14.10;99.90
6581;DHT22;3324;50.796;7.228;2023-05-07T02:04:21;14.20;99.90
6581;DHT22;3324;50.796;7.228;2023-05-07T02:06:46;14.20;99.90
6581;DHT22;3324;50.796;7.228;2023-05-07T02:09:12;14.20;99.90
6581;DHT22;3324;50.796;7.228;2023-05-07T02:11:40;14.20;99.90
6581;DHT22;3324;50.796;7.228;2023-05-07T02:14:06;14.20;99.90
6581;DHT22;3324;50.796;7.228;2023-05-07T02:16:31;14.10;99.90
6581;DHT22;3324;50.796;7.228;2023-05-07T02:18:57;14.10;99.90
6581;DHT22;3324;50.796;7.228;2023-05-07T02:21:24;14.20;99.90
6581;DHT22;3324;50.796;7.228;2023-05-07T02:23:49;14.20;99.90
6581;DHT22;3324;50.796;7.228;2023-05-07T02:26:15;14.10;99.90
6581;DHT22;3324;50.796;7.228;2023-05-07T02:28:41;14.20;99.90
6581;DHT22;3324;50.796;7.228;2023-05-07T02:31:07;14.20;99.90
6581;DHT22;3324;50.796;7.228;2023-05-07T02:33:32;14.20;99.90
6581;DHT22;3324;50.796;7.228;2023-05-07T02:36:09;14.20;99.90
6581;DHT22;3324;50.796;7.228;2023-05-07T02:38:35;14.10;99.90
6581;DHT22;3324;50.796;7.228;2023-05-07T02:41:00;14.10;99.90
6581;DHT22;3324;50.796;7.228;2023-05-07T02:43:26;14.10;99.90
6581;DHT22;3324;50.796;7.228;2023-05-07T02:46:05;14.10;99.90
6581;DHT22;3324;50.796;7.228;2023-05-07T02:48:31;14.10;99.90
6581;DHT22;3324;50.796;7.228;2023-05-07T02:50:58;14.10;99.90
6581;DHT22;3324;50.796;7.228;2023-05-07T02:53:24;14.10;99.90
6581;DHT22;3324;50.796;7.228;2023-05-07T02:55:56;14.10;99.90
6581;DHT22;3324;50.796;7.228;2023-05-07T02:58:22;14.10;99.90
6581;DHT22;3324;50.796;7.228;2023-05-07T03:00:48;14.10;99.90
6581;DHT22;3324;50.796;7.228;2023-05-07T03:03:14;14.10;99.90
6581;DHT22;3324;50.796;7.228;2023-05-07T03:05:40;14.00;99.90
6581;DHT22;3324;50.796;7.228;2023-05-07T03:08:05;14.00;99.90
6581;DHT22;3324;50.796;7.228;2023-05-07T03:10:31;14.00;99.90
6581;DHT22;3324;50.796;7.228;2023-05-07T03:12:57;14.00;99.90
6581;DHT22;3324;50.796;7.228;2023-05-07T03:15:22;13.90;99.90
6581;DHT22;3324;50.796;7.228;2023-05-07T03:17:48;13.90;99.90
6581;DHT22;3324;50.796;7.228;2023-05-07T03:20:14;13.90;99.90
6581;DHT22;3324;50.796;7.228;2023-05-07T03:22:40;13.90;99.90
6581;DHT22;3324;50.796;7.228;2023-05-07T03:25:06;13.90;99.90
6581;DHT22;3324;50.796;7.228;2023-05-07T03:27:32;13.90;99.90
6581;DHT22;3324;50.796;7.228;2023-05-07T03:29:57;13.80;99.90
6581;DHT22;3324;50.796;7.228;2023-05-07T03:32:23;13.90;99.90
6581;DHT22;3324;50.796;7.228;2023-05-07T03:34:48;13.90;99.90
6581;DHT22;3324;50.796;7.228;2023-05-07T03:37:14;14.10;99.90
6581;DHT22;3324;50.796;7.228;2023-05-07T03:39:40;14.20;99.90
6581;DHT22;3324;50.796;7.228;2023-05-07T03:42:05;14.10;99.90
6581;DHT22;3324;50.796;7.228;2023-05-07T03:44:31;14.00;99.90
6581;DHT22;3324;50.796;7.228;2023-05-07T03:46:56;14.00;99.90
6581;DHT22;3324;50.796;7.228;2023-05-07T03:49:22;13.90;99.90
6581;DHT22;3324;50.796;7.228;2023-05-07T03:51:47;13.90;99.90
6581;DHT22;3324;50.796;7.228;2023-05-07T03:54:13;13.90;99.90
6581;DHT22;3324;50.796;7.228;2023-05-07T03:56:39;13.80;99.90
6581;DHT22;3324;50.796;7.228;2023-05-07T03:59:04;13.80;99.90
6581;DHT22;3324;50.796;7.228;2023-05-07T04:01:30;13.90;99.90
6581;DHT22;3324;50.796;7.228;2023-05-07T04:03:55;13.90;99.90
6581;DHT22;3324;50.796;7.228;2023-05-07T04:06:21;13.90;99.90
6581;DHT22;3324;50.796;7.228;2023-05-07T04:08:47;14.00;99.90
6581;DHT22;3324;50.796;7.228;2023-05-07T04:11:13;13.90;99.90
6581;DHT22;3324;50.796;7.228;2023-05-07T04:13:38;13.90;99.90
6581;DHT22;3324;50.796;7.228;2023-05-07T04:16:05;13.90;99.90
6581;DHT22;3324;50.796;7.228;2023-05-07T04:18:30;13.90;99.90
6581;DHT22;3324;50.796;7.228;2023-05-07T04:20:56;13.90;99.90
6581;DHT22;3324;50.796;7.228;2023-05-07T04:23:22;13.90;99.90
6581;DHT22;3324;50.796;7.228;2023-05-07T04:25:47;13.90;99.90
6581;DHT22;3324;50.796;7.228;2023-05-07T04:28:13;13.90;99.90
6581;DHT22;3324;50.796;7.228;2023-05-07T04:30:39;13.90;99.90
6581;DHT22;3324;50.796;7.228;2023-05-07T04:33:05;13.90;99.90
6581;DHT22;3324;50.796;7.228;2023-05-07T04:35:32;13.80;99.90
6581;DHT22;3324;50.796;7.228;2023-05-07T04:37:58;13.80;99.90
6581;DHT22;3324;50.796;7.228;2023-05-07T04:40:23;13.80;99.90
6581;DHT22;3324;50.796;7.228;2023-05-07T04:42:49;13.80;99.90
6581;DHT22;3324;50.796;7.228;2023-05-07T04:45:14;13.80;99.90
6581;DHT22;3324;50.796;7.228;2023-05-07T04:47:40;13.80;99.90
6581;DHT22;3324;50.796;7.228;2023-05-07T04:50:09;13.70;99.90
6581;DHT22;3324;50.796;7.228;2023-05-07T04:52:36;13.70;99.90
6581;DHT22;3324;50.796;7.228;2023-05-07T04:55:01;13.80;99.90
6581;DHT22;3324;50.796;7.228;2023-05-07T04:57:27;13.80;99.90
6581;DHT22;3324;50.796;7.228;2023-05-07T04:59:53;13.80;99.90
6581;DHT22;3324;50.796;7.228;2023-05-07T05:02:19;13.80;99.90
6581;DHT22;3324;50.796;7.228;2023-05-07T05:04:45;13.90;99.90
6581;DHT22;3324;50.796;7.228;2023-05-07T05:07:10;13.80;99.90
6581;DHT22;3324;50.796;7.228;2023-05-07T05:09:36;13.90;99.90
6581;DHT22;3324;50.796;7.228;2023-05-07T05:12:02;13.90;99.90
6581;DHT22;3324;50.796;7.228;2023-05-07T05:14:28;13.90;99.90
6581;DHT22;3324;50.796;7.228;2023-05-07T05:16:53;13.90;99.90
6581;DHT22;3324;50.796;7.228;2023-05-07T05:19:19;13.90;99.90
6581;DHT22;3324;50.796;7.228;2023-05-07T05:21:44;13.90;99.90
6581;DHT22;3324;50.796;7.228;2023-05-07T05:24:10;14.00;99.90
6581;DHT22;3324;50.796;7.228;2023-05-07T05:26:35;14.00;99.90
6581;DHT22;3324;50.796;7.228;2023-05-07T05:29:01;13.90;99.90
6581;DHT22;3324;50.796;7.228;2023-05-07T05:31:27;14.00;99.90
6581;DHT22;3324;50.796;7.228;2023-05-07T05:33:52;14.10;99.90
6581;DHT22;3324;50.796;7.228;2023-05-07T05:36:18;14.10;99.90
6581;DHT22;3324;50.796;7.228;2023-05-07T05:38:43;14.20;99.90
6581;DHT22;3324;50.796;7.228;2023-05-07T05:41:10;14.20;99.90
6581;DHT22;3324;50.796;7.228;2023-05-07T05:43:35;14.20;99.90
6581;DHT22;3324;50.796;7.228;2023-05-07T05:46:01;14.30;99.90
6581;DHT22;3324;50.796;7.228;2023-05-07T05:48:28;14.30;99.90
6581;DHT22;3324;50.796;7.228;2023-05-07T05:50:54;14.40;99.90
6581;DHT22;3324;50.796;7.228;2023-05-07T05:53:19;14.40;99.90
6581;DHT22;3324;50.796;7.228;2023-05-07T05:55:45;14.50;99.90
6581;DHT22;3324;50.796;7.228;2023-05-07T05:58:11;14.50;99.90
6581;DHT22;3324;50.796;7.228;2023-05-07T06:00:38;14.70;99.90
6581;DHT22;3324;50.796;7.228;2023-05-07T06:03:04;14.70;99.90
6581;DHT22;3324;50.796;7.228;2023-05-07T06:05:30;14.70;99.90
6581;DHT22;3324;50.796;7.228;2023-05-07T06:07:55;14.70;99.90
6581;DHT22;3324;50.796;7.228;2023-05-07T06:10:21;14.80;99.90
6581;DHT22;3324;50.796;7.228;2023-05-07T06:12:47;14.80;99.90
6581;DHT22;3324;50.796;7.228;2023-05-07T06:15:12;14.80;99.90
6581;DHT22;3324;50.796;7.228;2023-05-07T06:17:38;14.80;99.90
6581;DHT22;3324;50.796;7.228;2023-05-07T06:20:04;14.90;99.90
6581;DHT22;3324;50.796;7.228;2023-05-07T06:22:29;14.90;99.90
6581;DHT22;3324;50.796;7.228;2023-05-07T06:24:55;15.00;99.90
6581;DHT22;3324;50.796;7.228;2023-05-07T06:27:20;15.00;99.90
6581;DHT22;3324;50.796;7.228;2023-05-07T06:29:48;15.10;99.90
6581;DHT22;3324;50.796;7.228;2023-05-07T06:32:14;15.10;99.90
6581;DHT22;3324;50.796;7.228;2023-05-07T06:34:40;15.20;99.90
6581;DHT22;3324;50.796;7.228;2023-05-07T06:37:07;15.20;99.90
6581;DHT22;3324;50.796;7.228;2023-05-07T06:39:33;15.30;99.90
6581;DHT22;3324;50.796;7.228;2023-05-07T06:42:00;15.40;99.90
6581;DHT22;3324;50.796;7.228;2023-05-07T06:44:25;15.50;99.90
6581;DHT22;3324;50.796;7.228;2023-05-07T06:46:51;15.60;99.90
6581;DHT22;3324;50.796;7.228;2023-05-07T06:49:17;15.70;99.90
6581;DHT22;3324;50.796;7.228;2023-05-07T06:51:42;15.80;99.90
6581;DHT22;3324;50.796;7.228;2023-05-07T06:54:08;15.80;99.90
6581;DHT22;3324;50.796;7.228;2023-05-07T06:56:34;15.80;99.90
6581;DHT22;3324;50.796;7.228;2023-05-07T06:59:01;15.90;99.90
6581;DHT22;3324;50.796;7.228;2023-05-07T07:01:26;15.90;99.90
6581;DHT22;3324;50.796;7.228;2023-05-07T07:03:52;16.00;99.90
6581;DHT22;3324;50.796;7.228;2023-05-07T07:06:18;16.10;99.90
6581;DHT22;3324;50.796;7.228;2023-05-07T07:08:43;16.20;99.90
6581;DHT22;3324;50.796;7.228;2023-05-07T07:11:09;16.20;99.90
6581;DHT22;3324;50.796;7.228;2023-05-07T07:13:35;16.20;99.90
6581;DHT22;3324;50.796;7.228;2023-05-07T07:16:01;16.30;99.90
6581;DHT22;3324;50.796;7.228;2023-05-07T07:18:27;16.40;99.90
6581;DHT22;3324;50.796;7.228;2023-05-07T07:20:52;16.50;99.90
6581;DHT22;3324;50.796;7.228;2023-05-07T07:23:18;16.50;99.90
6581;DHT22;3324;50.796;7.228;2023-05-07T07:25:44;16.60;99.90
6581;DHT22;3324;50.796;7.228;2023-05-07T07:28:10;16.70;99.90
6581;DHT22;3324;50.796;7.228;2023-05-07T07:30:36;16.80;99.90
6581;DHT22;3324;50.796;7.228;2023-05-07T07:33:02;16.80;99.90
6581;DHT22;3324;50.796;7.228;2023-05-07T07:35:35;17.00;99.90
6581;DHT22;3324;50.796;7.228;2023-05-07T07:38:00;17.10;99.90
6581;DHT22;3324;50.796;7.228;2023-05-07T07:40:27;17.20;99.90
6581;DHT22;3324;50.796;7.228;2023-05-07T07:42:53;17.30;99.90
6581;DHT22;3324;50.796;7.228;2023-05-07T07:45:19;17.30;99.90
6581;DHT22;3324;50.796;7.228;2023-05-07T07:47:45;17.40;99.90
6581;DHT22;3324;50.796;7.228;2023-05-07T07:50:10;17.40;99.90
6581;DHT22;3324;50.796;7.228;2023-05-07T07:52:36;17.40;99.90
6581;DHT22;3324;50.796;7.228;2023-05-07T07:55:02;17.40;99.90
6581;DHT22;3324;50.796;7.228;2023-05-07T07:57:28;17.50;99.90
6581;DHT22;3324;50.796;7.228;2023-05-07T07:59:54;17.50;99.90
6581;DHT22;3324;50.796;7.228;2023-05-07T08:02:19;17.50;99.90
6581;DHT22;3324;50.796;7.228;2023-05-07T08:04:45;17.50;99.90
6581;DHT22;3324;50.796;7.228;2023-05-07T08:07:11;17.50;99.90
6581;DHT22;3324;50.796;7.228;2023-05-07T08:09:37;17.60;99.90
6581;DHT22;3324;50.796;7.228;2023-05-07T08:12:04;17.60;99.90
6581;DHT22;3324;50.796;7.228;2023-05-07T08:14:30;17.60;99.90
6581;DHT22;3324;50.796;7.228;2023-05-07T08:16:55;17.70;99.90
6581;DHT22;3324;50.796;7.228;2023-05-07T08:19:21;17.70;99.90
6581;DHT22;3324;50.796;7.228;2023-05-07T08:21:48;17.80;99.90
6581;DHT22;3324;50.796;7.228;2023-05-07T08:24:14;17.70;99.90
6581;DHT22;3324;50.796;7.228;2023-05-07T08:26:40;17.80;99.90
6581;DHT22;3324;50.796;7.228;2023-05-07T08:29:06;17.90;99.90
6581;DHT22;3324;50.796;7.228;2023-05-07T08:31:31;17.90;99.90
6581;DHT22;3324;50.796;7.228;2023-05-07T08:33:57;17.90;99.90
6581;DHT22;3324;50.796;7.228;2023-05-07T08:36:23;18.00;99.90
6581;DHT22;3324;50.796;7.228;2023-05-07T08:38:49;18.10;99.90
6581;DHT22;3324;50.796;7.228;2023-05-07T08:41:15;18.20;99.90
6581;DHT22;3324;50.796;7.228;2023-05-07T08:43:41;18.20;99.90
6581;DHT22;3324;50.796;7.228;2023-05-07T08:46:09;18.30;99.90
6581;DHT22;3324;50.796;7.228;2023-05-07T08:48:36;18.40;99.90
6581;DHT22;3324;50.796;7.228;2023-05-07T08:51:02;18.60;99.90
6581;DHT22;3324;50.796;7.228;2023-05-07T08:53:28;18.70;99.90
6581;DHT22;3324;50.796;7.228;2023-05-07T08:55:54;18.80;99.90
6581;DHT22;3324;50.796;7.228;2023-05-07T08:58:20;19.10;99.90
6581;DHT22;3324;50.796;7.228;2023-05-07T09:00:46;19.30;99.90
6581;DHT22;3324;50.796;7.228;2023-05-07T09:03:12;19.40;99.90
6581;DHT22;3324;50.796;7.228;2023-05-07T09:05:39;19.50;99.90
6581;DHT22;3324;50.796;7.228;2023-05-07T09:08:07;19.70;99.90
6581;DHT22;3324;50.796;7.228;2023-05-07T09:10:33;19.90;99.90
6581;DHT22;3324;50.796;7.228;2023-05-07T09:12:59;20.00;99.90
6581;DHT22;3324;50.796;7.228;2023-05-07T09:15:26;20.10;99.90
6581;DHT22;3324;50.796;7.228;2023-05-07T09:17:52;20.30;99.90
6581;DHT22;3324;50.796;7.228;2023-05-07T09:20:18;20.30;99.90
6581;DHT22;3324;50.796;7.228;2023-05-07T09:22:43;20.30;99.90
6581;DHT22;3324;50.796;7.228;2023-05-07T09:25:09;20.30;99.90
6581;DHT22;3324;50.796;7.228;2023-05-07T09:27:35;20.30;99.90
6581;DHT22;3324;50.796;7.228;2023-05-07T09:30:08;20.30;99.90
6581;DHT22;3324;50.796;7.228;2023-05-07T09:32:37;20.40;99.90
6581;DHT22;3324;50.796;7.228;2023-05-07T09:35:05;20.60;99.90
6581;DHT22;3324;50.796;7.228;2023-05-07T09:37:31;20.80;99.90
6581;DHT22;3324;50.796;7.228;2023-05-07T09:39:58;20.90;99.90
6581;DHT22;3324;50.796;7.228;2023-05-07T09:42:24;20.90;99.90
6581;DHT22;3324;50.796;7.228;2023-05-07T09:44:52;20.90;99.90
6581;DHT22;3324;50.796;7.228;2023-05-07T09:47:23;21.00;99.90
6581;DHT22;3324;50.796;7.228;2023-05-07T09:49:50;21.10;99.90
6581;DHT22;3324;50.796;7.228;2023-05-07T09:52:20;21.20;99.90
6581;DHT22;3324;50.796;7.228;2023-05-07T09:54:47;21.30;99.90
6581;DHT22;3324;50.796;7.228;2023-05-07T09:57:15;21.20;99.90
6581;DHT22;3324;50.796;7.228;2023-05-07T09:59:43;21.20;99.90
6581;DHT22;3324;50.796;7.228;2023-05-07T10:02:09;21.20;99.90
6581;DHT22;3324;50.796;7.228;2023-05-07T10:04:35;21.20;99.90
6581;DHT22;3324;50.796;7.228;2023-05-07T10:07:01;21.20;99.90
6581;DHT22;3324;50.796;7.228;2023-05-07T10:09:28;21.20;99.90
6581;DHT22;3324;50.796;7.228;2023-05-07T10:11:54;21.30;99.90
6581;DHT22;3324;50.796;7.228;2023-05-07T10:14:21;21.20;99.90
6581;DHT22;3324;50.796;7.228;2023-05-07T10:16:47;21.20;99.90
6581;DHT22;3324;50.796;7.228;2023-05-07T10:19:14;21.20;99.90
6581;DHT22;3324;50.796;7.228;2023-05-07T10:21:48;21.30;99.90
6581;DHT22;3324;50.796;7.228;2023-05-07T10:24:31;21.40;99.90
6581;DHT22;3324;50.796;7.228;2023-05-07T10:26:59;21.50;99.90
6581;DHT22;3324;50.796;7.228;2023-05-07T10:29:33;21.50;99.90
6581;DHT22;3324;50.796;7.228;2023-05-07T10:34:49;21.70;99.90
6581;DHT22;3324;50.796;7.228;2023-05-07T10:37:16;21.80;99.90
6581;DHT22;3324;50.796;7.228;2023-05-07T10:39:42;22.00;99.90
6581;DHT22;3324;50.796;7.228;2023-05-07T10:42:11;22.20;99.90
6581;DHT22;3324;50.796;7.228;2023-05-07T10:44:37;22.30;99.90
6581;DHT22;3324;50.796;7.228;2023-05-07T10:47:14;22.50;99.90
6581;DHT22;3324;50.796;7.228;2023-05-07T10:52:17;23.10;99.90
6581;DHT22;3324;50.796;7.228;2023-05-07T10:54:43;23.20;99.90
6581;DHT22;3324;50.796;7.228;2023-05-07T10:59:57;23.00;99.90
6581;DHT22;3324;50.796;7.228;2023-05-07T11:02:23;23.00;99.90
6581;DHT22;3324;50.796;7.228;2023-05-07T11:05:20;23.20;99.90
6581;DHT22;3324;50.796;7.228;2023-05-07T11:07:54;23.10;99.90
6581;DHT22;3324;50.796;7.228;2023-05-07T11:10:21;23.00;99.90
6581;DHT22;3324;50.796;7.228;2023-05-07T11:12:48;22.90;99.90
6581;DHT22;3324;50.796;7.228;2023-05-07T11:15:16;22.80;99.90
6581;DHT22;3324;50.796;7.228;2023-05-07T11:17:59;22.80;99.90
6581;DHT22;3324;50.796;7.228;2023-05-07T11:20:44;22.70;99.90
6581;DHT22;3324;50.796;7.228;2023-05-07T11:26:10;22.60;99.90
6581;DHT22;3324;50.796;7.228;2023-05-07T11:28:38;22.50;99.90
6581;DHT22;3324;50.796;7.228;2023-05-07T11:31:04;22.50;99.90
6581;DHT22;3324;50.796;7.228;2023-05-07T11:33:30;22.40;99.90
6581;DHT22;3324;50.796;7.228;2023-05-07T11:35:57;22.30;99.90
6581;DHT22;3324;50.796;7.228;2023-05-07T11:38:22;22.20;99.90
6581;DHT22;3324;50.796;7.228;2023-05-07T11:40:58;22.30;99.90
6581;DHT22;3324;50.796;7.228;2023-05-07T11:43:26;22.30;99.90
6581;DHT22;3324;50.796;7.228;2023-05-07T11:45:52;22.40;99.90
6581;DHT22;3324;50.796;7.228;2023-05-07T11:48:18;22.50;99.90
6581;DHT22;3324;50.796;7.228;2023-05-07T11:50:53;22.60;99.90
6581;DHT22;3324;50.796;7.228;2023-05-07T11:53:20;22.60;99.90
6581;DHT22;3324;50.796;7.228;2023-05-07T11:55:52;22.70;99.90
6581;DHT22;3324;50.796;7.228;2023-05-07T11:58:21;22.80;99.90
6581;DHT22;3324;50.796;7.228;2023-05-07T12:00:51;22.90;99.90
6581;DHT22;3324;50.796;7.228;2023-05-07T12:03:17;22.90;99.90
6581;DHT22;3324;50.796;7.228;2023-05-07T12:05:46;22.90;99.90
6581;DHT22;3324;50.796;7.228;2023-05-07T12:08:16;22.80;99.90
6581;DHT22;3324;50.796;7.228;2023-05-07T12:10:43;22.70;99.90
6581;DHT22;3324;50.796;7.228;2023-05-07T12:13:19;22.60;99.90
6581;DHT22;3324;50.796;7.228;2023-05-07T12:15:45;22.50;99.90
6581;DHT22;3324;50.796;7.228;2023-05-07T12:18:11;22.40;99.90
6581;DHT22;3324;50.796;7.228;2023-05-07T12:20:37;22.40;99.90
6581;DHT22;3324;50.796;7.228;2023-05-07T12:23:03;22.40;99.90
6581;DHT22;3324;50.796;7.228;2023-05-07T12:25:38;22.30;99.90
6581;DHT22;3324;50.796;7.228;2023-05-07T12:28:05;22.20;99.90
6581;DHT22;3324;50.796;7.228;2023-05-07T12:30:32;22.10;99.90
6581;DHT22;3324;50.796;7.228;2023-05-07T12:33:02;22.00;99.90
6581;DHT22;3324;50.796;7.228;2023-05-07T12:35:28;21.90;99.90
6581;DHT22;3324;50.796;7.228;2023-05-07T12:37:58;21.80;99.90
6581;DHT22;3324;50.796;7.228;2023-05-07T12:40:38;21.80;99.90
6581;DHT22;3324;50.796;7.228;2023-05-07T12:43:04;21.80;99.90
6581;DHT22;3324;50.796;7.228;2023-05-07T12:45:30;21.80;99.90
6581;DHT22;3324;50.796;7.228;2023-05-07T12:47:56;21.70;99.90
6581;DHT22;3324;50.796;7.228;2023-05-07T12:50:22;21.80;99.90
6581;DHT22;3324;50.796;7.228;2023-05-07T12:52:48;21.70;99.90
6581;DHT22;3324;50.796;7.228;2023-05-07T12:55:15;21.60;99.90
6581;DHT22;3324;50.796;7.228;2023-05-07T12:57:48;21.60;99.90
6581;DHT22;3324;50.796;7.228;2023-05-07T13:00:16;21.50;99.90
6581;DHT22;3324;50.796;7.228;2023-05-07T13:02:42;21.50;99.90
6581;DHT22;3324;50.796;7.228;2023-05-07T13:05:11;21.40;99.90
6581;DHT22;3324;50.796;7.228;2023-05-07T13:07:37;21.40;99.90
6581;DHT22;3324;50.796;7.228;2023-05-07T13:10:03;21.20;99.90
6581;DHT22;3324;50.796;7.228;2023-05-07T13:12:29;21.20;99.90
6581;DHT22;3324;50.796;7.228;2023-05-07T13:14:55;21.10;99.90
6581;DHT22;3324;50.796;7.228;2023-05-07T13:17:20;21.20;99.90
6581;DHT22;3324;50.796;7.228;2023-05-07T13:19:46;21.20;99.90
6581;DHT22;3324;50.796;7.228;2023-05-07T13:22:11;21.10;99.90
6581;DHT22;3324;50.796;7.228;2023-05-07T13:24:37;21.10;99.90
6581;DHT22;3324;50.796;7.228;2023-05-07T13:27:02;21.20;99.90
6581;DHT22;3324;50.796;7.228;2023-05-07T13:29:28;21.20;99.90
6581;DHT22;3324;50.796;7.228;2023-05-07T13:31:59;21.20;99.90
6581;DHT22;3324;50.796;7.228;2023-05-07T13:34:25;21.20;99.90
6581;DHT22;3324;50.796;7.228;2023-05-07T13:36:51;21.30;99.90
6581;DHT22;3324;50.796;7.228;2023-05-07T13:39:16;21.40;99.90
6581;DHT22;3324;50.796;7.228;2023-05-07T13:41:42;21.40;99.90
6581;DHT22;3324;50.796;7.228;2023-05-07T13:44:07;21.50;99.90
6581;DHT22;3324;50.796;7.228;2023-05-07T13:46:33;21.60;99.90
6581;DHT22;3324;50.796;7.228;2023-05-07T13:48:59;21.70;99.90
6581;DHT22;3324;50.796;7.228;2023-05-07T13:51:24;21.70;99.90
6581;DHT22;3324;50.796;7.228;2023-05-07T13:53:51;21.80;99.90
6581;DHT22;3324;50.796;7.228;2023-05-07T13:56:17;21.80;99.90
6581;DHT22;3324;50.796;7.228;2023-05-07T13:58:43;21.90;99.90
6581;DHT22;3324;50.796;7.228;2023-05-07T14:01:09;22.00;99.90
6581;DHT22;3324;50.796;7.228;2023-05-07T14:03:34;22.10;99.90
6581;DHT22;3324;50.796;7.228;2023-05-07T14:06:03;22.20;99.90
6581;DHT22;3324;50.796;7.228;2023-05-07T14:08:28;22.30;99.90
6581;DHT22;3324;50.796;7.228;2023-05-07T14:10:55;22.40;99.90
6581;DHT22;3324;50.796;7.228;2023-05-07T14:13:20;22.40;99.90
6581;DHT22;3324;50.796;7.228;2023-05-07T14:15:46;22.50;99.90
6581;DHT22;3324;50.796;7.228;2023-05-07T14:18:13;22.40;99.90
6581;DHT22;3324;50.796;7.228;2023-05-07T14:20:39;22.40;99.90
6581;DHT22;3324;50.796;7.228;2023-05-07T14:23:04;22.40;99.90
6581;DHT22;3324;50.796;7.228;2023-05-07T14:25:30;22.40;99.90
6581;DHT22;3324;50.796;7.228;2023-05-07T14:27:56;22.30;99.90
6581;DHT22;3324;50.796;7.228;2023-05-07T14:30:21;22.20;99.90
6581;DHT22;3324;50.796;7.228;2023-05-07T14:32:50;22.20;99.90
6581;DHT22;3324;50.796;7.228;2023-05-07T14:35:16;22.10;99.90
6581;DHT22;3324;50.796;7.228;2023-05-07T14:37:42;22.00;99.90
6581;DHT22;3324;50.796;7.228;2023-05-07T14:40:08;21.90;99.90
6581;DHT22;3324;50.796;7.228;2023-05-07T14:42:34;21.90;99.90
6581;DHT22;3324;50.796;7.228;2023-05-07T14:45:00;21.80;99.90
6581;DHT22;3324;50.796;7.228;2023-05-07T14:47:25;21.60;99.90
6581;DHT22;3324;50.796;7.228;2023-05-07T14:49:51;21.60;99.90
6581;DHT22;3324;50.796;7.228;2023-05-07T14:52:16;21.50;99.90
6581;DHT22;3324;50.796;7.228;2023-05-07T14:54:42;21.40;99.90
6581;DHT22;3324;50.796;7.228;2023-05-07T14:57:09;21.40;99.90
6581;DHT22;3324;50.796;7.228;2023-05-07T14:59:35;21.40;99.90
6581;DHT22;3324;50.796;7.228;2023-05-07T15:02:01;21.40;99.90
6581;DHT22;3324;50.796;7.228;2023-05-07T15:04:27;21.30;99.90
6581;DHT22;3324;50.796;7.228;2023-05-07T15:06:52;21.30;99.90
6581;DHT22;3324;50.796;7.228;2023-05-07T15:09:19;21.30;99.90
6581;DHT22;3324;50.796;7.228;2023-05-07T15:11:45;21.30;99.90
6581;DHT22;3324;50.796;7.228;2023-05-07T15:14:10;21.30;99.90
6581;DHT22;3324;50.796;7.228;2023-05-07T15:16:36;21.30;99.90
6581;DHT22;3324;50.796;7.228;2023-05-07T15:19:01;21.20;99.90
6581;DHT22;3324;50.796;7.228;2023-05-07T15:21:27;21.20;99.90
6581;DHT22;3324;50.796;7.228;2023-05-07T15:23:53;21.20;99.90
6581;DHT22;3324;50.796;7.228;2023-05-07T15:26:18;21.10;99.90
6581;DHT22;3324;50.796;7.228;2023-05-07T15:28:44;21.00;99.90
6581;DHT22;3324;50.796;7.228;2023-05-07T15:31:10;21.00;99.90
6581;DHT22;3324;50.796;7.228;2023-05-07T15:33:36;21.00;99.90
6581;DHT22;3324;50.796;7.228;2023-05-07T15:36:01;21.00;99.90
6581;DHT22;3324;50.796;7.228;2023-05-07T15:38:28;21.00;99.90
6581;DHT22;3324;50.796;7.228;2023-05-07T15:40:54;21.00;99.90
6581;DHT22;3324;50.796;7.228;2023-05-07T15:43:19;20.90;99.90
6581;DHT22;3324;50.796;7.228;2023-05-07T15:45:46;20.80;99.90
6581;DHT22;3324;50.796;7.228;2023-05-07T15:48:11;20.70;99.90
6581;DHT22;3324;50.796;7.228;2023-05-07T15:50:37;20.60;99.90
6581;DHT22;3324;50.796;7.228;2023-05-07T15:53:03;20.50;99.90
6581;DHT22;3324;50.796;7.228;2023-05-07T15:55:30;20.30;99.90
6581;DHT22;3324;50.796;7.228;2023-05-07T15:57:56;20.20;99.90
6581;DHT22;3324;50.796;7.228;2023-05-07T16:00:25;20.10;99.90
6581;DHT22;3324;50.796;7.228;2023-05-07T16:02:51;20.10;99.90
6581;DHT22;3324;50.796;7.228;2023-05-07T16:05:17;20.00;99.90
6581;DHT22;3324;50.796;7.228;2023-05-07T16:07:42;19.80;99.90
6581;DHT22;3324;50.796;7.228;2023-05-07T16:10:09;19.60;99.90